sensor_id;sensor_type;location;lat;lon;timestamp;P1;durP1;ratioP1;P2;durP2;ratioP2
10403;SDS011;5248;47.374;8.486;2022-09-12T00:02:09;1.87;;;1.43;;
10403;SDS011;5248;47.374;8.486;2022-09-12T00:04:36;1.60;;;1.50;;
10403;SDS011;5248;47.374;8.486;2022-09-12T00:07:02;2.60;;;1.77;;
10403;SDS011;5248;47.374;8.486;2022-09-12T00:09:29;1.60;;;1.50;;
10403;SDS011;5248;47.374;8.486;2022-09-12T00:11:55;2.90;;;1.90;;
10403;SDS011;5248;47.374;8.486;2022-09-12T00:14:22;1.97;;;1.63;;
10403;SDS011;5248;47.374;8.486;2022-09-12T00:16:50;2.63;;;2.13;;
10403;SDS011;5248;47.374;8.486;2022-09-12T00:19:17;2.40;;;1.83;;
10403;SDS011;5248;47.374;8.486;2022-09-12T00:21:43;2.40;;;1.97;;
10403;SDS011;5248;47.374;8.486;2022-09-12T00:24:10;1.90;;;1.80;;
10403;SDS011;5248;47.374;8.486;2022-09-12T00:26:37;3.43;;;1.40;;
10403;SDS011;5248;47.374;8.486;2022-09-12T00:29:04;2.67;;;1.77;;
10403;SDS011;5248;47.374;8.486;2022-09-12T00:31:30;2.00;;;1.90;;
10403;SDS011;5248;47.374;8.486;2022-09-12T00:33:59;1.80;;;1.70;;
10403;SDS011;5248;47.374;8.486;2022-09-12T00:36:26;1.50;;;1.40;;
10403;SDS011;5248;47.374;8.486;2022-09-12T00:38:53;3.13;;;1.40;;
10403;SDS011;5248;47.374;8.486;2022-09-12T00:41:20;2.10;;;1.90;;
10403;SDS011;5248;47.374;8.486;2022-09-12T00:43:50;2.13;;;1.93;;
10403;SDS011;5248;47.374;8.486;2022-09-12T00:46:22;2.80;;;2.07;;
10403;SDS011;5248;47.374;8.486;2022-09-12T00:48:53;2.67;;;2.00;;
10403;SDS011;5248;47.374;8.486;2022-09-12T00:51:23;3.23;;;1.70;;
10403;SDS011;5248;47.374;8.486;2022-09-12T00:53:50;2.07;;;1.73;;
10403;SDS011;5248;47.374;8.486;2022-09-12T00:56:19;2.63;;;2.27;;
10403;SDS011;5248;47.374;8.486;2022-09-12T00:58:48;1.97;;;1.80;;
10403;SDS011;5248;47.374;8.486;2022-09-12T01:01:17;1.97;;;1.67;;
10403;SDS011;5248;47.374;8.486;2022-09-12T01:03:44;4.40;;;1.70;;
10403;SDS011;5248;47.374;8.486;2022-09-12T01:06:13;2.47;;;1.80;;
10403;SDS011;5248;47.374;8.486;2022-09-12T01:08:43;3.00;;;2.07;;
10403;SDS011;5248;47.374;8.486;2022-09-12T01:11:12;2.30;;;1.70;;
10403;SDS011;5248;47.374;8.486;2022-09-12T01:13:39;2.80;;;2.17;;
10403;SDS011;5248;47.374;8.486;2022-09-12T01:16:06;2.87;;;2.20;;
10403;SDS011;5248;47.374;8.486;2022-09-12T01:18:37;3.07;;;1.90;;
10403;SDS011;5248;47.374;8.486;2022-09-12T01:21:13;3.07;;;2.27;;
10403;SDS011;5248;47.374;8.486;2022-09-12T01:26:56;2.00;;;1.90;;
10403;SDS011;5248;47.374;8.486;2022-09-12T01:29:44;1.90;;;1.80;;
10403;SDS011;5248;47.374;8.486;2022-09-12T01:32:49;4.13;;;2.07;;
10403;SDS011;5248;47.374;8.486;2022-09-12T01:35:22;2.97;;;2.40;;
10403;SDS011;5248;47.374;8.486;2022-09-12T01:37:53;2.03;;;1.90;;
10403;SDS011;5248;47.374;8.486;2022-09-12T01:40:26;1.90;;;1.80;;
10403;SDS011;5248;47.374;8.486;2022-09-12T01:43:01;3.20;;;2.20;;
10403;SDS011;5248;47.374;8.486;2022-09-12T01:45:32;2.57;;;2.10;;
10403;SDS011;5248;47.374;8.486;2022-09-12T01:48:05;3.23;;;1.97;;
10403;SDS011;5248;47.374;8.486;2022-09-12T01:50:39;2.17;;;1.87;;
10403;SDS011;5248;47.374;8.486;2022-09-12T01:53:11;2.33;;;2.17;;
10403;SDS011;5248;47.374;8.486;2022-09-12T01:55:41;3.33;;;2.37;;
10403;SDS011;5248;47.374;8.486;2022-09-12T01:58:11;4.37;;;2.33;;
10403;SDS011;5248;47.374;8.486;2022-09-12T02:00:41;2.80;;;2.37;;
10403;SDS011;5248;47.374;8.486;2022-09-12T02:03:14;3.73;;;2.20;;
10403;SDS011;5248;47.374;8.486;2022-09-12T02:05:46;2.57;;;2.37;;
10403;SDS011;5248;47.374;8.486;2022-09-12T02:08:16;4.67;;;2.40;;
10403;SDS011;5248;47.374;8.486;2022-09-12T02:10:45;3.73;;;2.30;;
10403;SDS011;5248;47.374;8.486;2022-09-12T02:13:15;3.37;;;2.30;;
10403;SDS011;5248;47.374;8.486;2022-09-12T02:15:45;2.37;;;2.17;;
10403;SDS011;5248;47.374;8.486;2022-09-12T02:18:16;2.10;;;2.00;;
10403;SDS011;5248;47.374;8.486;2022-09-12T02:20:44;2.47;;;2.20;;
10403;SDS011;5248;47.374;8.486;2022-09-12T02:23:12;2.53;;;2.27;;
10403;SDS011;5248;47.374;8.486;2022-09-12T02:25:41;3.50;;;2.33;;
10403;SDS011;5248;47.374;8.486;2022-09-12T02:28:10;2.53;;;2.33;;
10403;SDS011;5248;47.374;8.486;2022-09-12T02:30:41;3.00;;;2.20;;
10403;SDS011;5248;47.374;8.486;2022-09-12T02:33:10;2.40;;;2.20;;
10403;SDS011;5248;47.374;8.486;2022-09-12T02:35:45;2.27;;;2.10;;
10403;SDS011;5248;47.374;8.486;2022-09-12T02:38:14;4.77;;;2.17;;
10403;SDS011;5248;47.374;8.486;2022-09-12T02:40:45;3.40;;;2.43;;
10403;SDS011;5248;47.374;8.486;2022-09-12T02:43:12;2.83;;;2.30;;
10403;SDS011;5248;47.374;8.486;2022-09-12T02:45:39;2.57;;;2.40;;
10403;SDS011;5248;47.374;8.486;2022-09-12T02:48:07;3.87;;;2.53;;
10403;SDS011;5248;47.374;8.486;2022-09-12T02:50:36;2.27;;;2.07;;
10403;SDS011;5248;47.374;8.486;2022-09-12T02:53:03;2.70;;;2.50;;
10403;SDS011;5248;47.374;8.486;2022-09-12T02:55:32;2.33;;;2.17;;
10403;SDS011;5248;47.374;8.486;2022-09-12T02:58:00;2.53;;;2.37;;
10403;SDS011;5248;47.374;8.486;2022-09-12T03:00:28;2.50;;;2.30;;
10403;SDS011;5248;47.374;8.486;2022-09-12T03:03:07;2.70;;;2.50;;
10403;SDS011;5248;47.374;8.486;2022-09-12T03:05:44;3.23;;;2.10;;
10403;SDS011;5248;47.374;8.486;2022-09-12T03:08:19;3.50;;;2.57;;
10403;SDS011;5248;47.374;8.486;2022-09-12T03:11:02;2.60;;;2.40;;
10403;SDS011;5248;47.374;8.486;2022-09-12T03:13:36;4.47;;;2.47;;
10403;SDS011;5248;47.374;8.486;2022-09-12T03:16:11;3.23;;;2.50;;
10403;SDS011;5248;47.374;8.486;2022-09-12T03:18:46;2.77;;;2.20;;
10403;SDS011;5248;47.374;8.486;2022-09-12T03:21:20;2.57;;;2.30;;
10403;SDS011;5248;47.374;8.486;2022-09-12T03:23:50;2.57;;;2.37;;
10403;SDS011;5248;47.374;8.486;2022-09-12T03:26:26;2.50;;;2.30;;
10403;SDS011;5248;47.374;8.486;2022-09-12T03:28:58;2.53;;;2.37;;
10403;SDS011;5248;47.374;8.486;2022-09-12T03:31:25;2.77;;;2.17;;
10403;SDS011;5248;47.374;8.486;2022-09-12T03:33:52;2.30;;;2.13;;
10403;SDS011;5248;47.374;8.486;2022-09-12T03:36:20;2.63;;;2.43;;
10403;SDS011;5248;47.374;8.486;2022-09-12T03:38:49;2.70;;;2.40;;
10403;SDS011;5248;47.374;8.486;2022-09-12T03:41:15;2.67;;;2.47;;
10403;SDS011;5248;47.374;8.486;2022-09-12T03:43:42;2.50;;;2.30;;
10403;SDS011;5248;47.374;8.486;2022-09-12T03:46:09;4.10;;;2.60;;
10403;SDS011;5248;47.374;8.486;2022-09-12T03:48:37;2.60;;;2.40;;
10403;SDS011;5248;47.374;8.486;2022-09-12T03:51:05;2.60;;;2.40;;
10403;SDS011;5248;47.374;8.486;2022-09-12T03:53:34;2.90;;;2.70;;
10403;SDS011;5248;47.374;8.486;2022-09-12T03:56:04;2.83;;;2.30;;
10403;SDS011;5248;47.374;8.486;2022-09-12T03:58:31;2.63;;;2.43;;
10403;SDS011;5248;47.374;8.486;2022-09-12T04:00:59;3.53;;;2.57;;
10403;SDS011;5248;47.374;8.486;2022-09-12T04:03:26;5.47;;;3.10;;
10403;SDS011;5248;47.374;8.486;2022-09-12T04:05:53;3.67;;;2.60;;
10403;SDS011;5248;47.374;8.486;2022-09-12T04:08:22;4.60;;;2.90;;
10403;SDS011;5248;47.374;8.486;2022-09-12T04:10:52;5.43;;;3.07;;
10403;SDS011;5248;47.374;8.486;2022-09-12T04:13:18;3.30;;;3.00;;
10403;SDS011;5248;47.374;8.486;2022-09-12T04:15:54;3.00;;;2.80;;
10403;SDS011;5248;47.374;8.486;2022-09-12T04:18:21;2.97;;;2.77;;
10403;SDS011;5248;47.374;8.486;2022-09-12T04:20:48;4.33;;;2.90;;
10403;SDS011;5248;47.374;8.486;2022-09-12T04:23:14;4.37;;;2.80;;
10403;SDS011;5248;47.374;8.486;2022-09-12T04:25:41;3.40;;;2.53;;
10403;SDS011;5248;47.374;8.486;2022-09-12T04:28:09;4.30;;;3.00;;
10403;SDS011;5248;47.374;8.486;2022-09-12T04:30:35;3.00;;;2.60;;
10403;SDS011;5248;47.374;8.486;2022-09-12T04:33:02;3.33;;;2.90;;
10403;SDS011;5248;47.374;8.486;2022-09-12T04:35:29;2.70;;;2.50;;
10403;SDS011;5248;47.374;8.486;2022-09-12T04:37:55;3.53;;;3.20;;
10403;SDS011;5248;47.374;8.486;2022-09-12T04:40:22;3.10;;;2.80;;
10403;SDS011;5248;47.374;8.486;2022-09-12T04:42:48;3.20;;;2.97;;
10403;SDS011;5248;47.374;8.486;2022-09-12T04:45:16;3.57;;;3.20;;
10403;SDS011;5248;47.374;8.486;2022-09-12T04:47:43;6.13;;;3.30;;
10403;SDS011;5248;47.374;8.486;2022-09-12T04:50:10;3.50;;;3.20;;
10403;SDS011;5248;47.374;8.486;2022-09-12T04:52:38;3.43;;;3.20;;
10403;SDS011;5248;47.374;8.486;2022-09-12T04:55:06;5.63;;;3.07;;
10403;SDS011;5248;47.374;8.486;2022-09-12T04:57:33;3.83;;;3.40;;
10403;SDS011;5248;47.374;8.486;2022-09-12T05:00:00;3.60;;;2.90;;
10403;SDS011;5248;47.374;8.486;2022-09-12T05:02:33;4.10;;;3.23;;
10403;SDS011;5248;47.374;8.486;2022-09-12T05:04:59;6.03;;;3.60;;
10403;SDS011;5248;47.374;8.486;2022-09-12T05:07:26;4.07;;;3.10;;
10403;SDS011;5248;47.374;8.486;2022-09-12T05:09:53;4.03;;;3.43;;
10403;SDS011;5248;47.374;8.486;2022-09-12T05:12:20;5.57;;;3.37;;
10403;SDS011;5248;47.374;8.486;2022-09-12T05:14:47;3.93;;;3.50;;
10403;SDS011;5248;47.374;8.486;2022-09-12T05:17:13;4.57;;;3.70;;
10403;SDS011;5248;47.374;8.486;2022-09-12T05:19:41;5.20;;;3.40;;
10403;SDS011;5248;47.374;8.486;2022-09-12T05:22:08;5.03;;;3.53;;
10403;SDS011;5248;47.374;8.486;2022-09-12T05:24:35;4.07;;;3.70;;
10403;SDS011;5248;47.374;8.486;2022-09-12T05:27:03;4.77;;;3.63;;
10403;SDS011;5248;47.374;8.486;2022-09-12T05:29:30;4.80;;;3.60;;
10403;SDS011;5248;47.374;8.486;2022-09-12T05:31:58;5.20;;;3.63;;
10403;SDS011;5248;47.374;8.486;2022-09-12T05:34:27;3.70;;;3.50;;
10403;SDS011;5248;47.374;8.486;2022-09-12T05:36:56;3.60;;;3.30;;
10403;SDS011;5248;47.374;8.486;2022-09-12T05:39:23;4.07;;;3.50;;
10403;SDS011;5248;47.374;8.486;2022-09-12T05:41:49;8.67;;;3.60;;
10403;SDS011;5248;47.374;8.486;2022-09-12T05:44:16;4.47;;;3.80;;
10403;SDS011;5248;47.374;8.486;2022-09-12T05:46:44;4.50;;;3.77;;
10403;SDS011;5248;47.374;8.486;2022-09-12T05:49:12;4.30;;;3.90;;
10403;SDS011;5248;47.374;8.486;2022-09-12T05:51:40;4.57;;;3.50;;
10403;SDS011;5248;47.374;8.486;2022-09-12T05:54:11;5.70;;;4.30;;
10403;SDS011;5248;47.374;8.486;2022-09-12T05:56:38;5.73;;;4.67;;
10403;SDS011;5248;47.374;8.486;2022-09-12T05:59:08;5.23;;;4.73;;
10403;SDS011;5248;47.374;8.486;2022-09-12T06:01:37;6.00;;;5.50;;
10403;SDS011;5248;47.374;8.486;2022-09-12T06:04:04;6.00;;;5.13;;
10403;SDS011;5248;47.374;8.486;2022-09-12T06:06:35;6.30;;;5.70;;
10403;SDS011;5248;47.374;8.486;2022-09-12T06:09:03;7.13;;;6.03;;
10403;SDS011;5248;47.374;8.486;2022-09-12T06:11:32;8.67;;;5.70;;
10403;SDS011;5248;47.374;8.486;2022-09-12T06:14:01;7.60;;;5.67;;
10403;SDS011;5248;47.374;8.486;2022-09-12T06:16:29;7.60;;;6.13;;
10403;SDS011;5248;47.374;8.486;2022-09-12T06:18:57;6.93;;;6.23;;
10403;SDS011;5248;47.374;8.486;2022-09-12T06:21:25;6.70;;;6.00;;
10403;SDS011;5248;47.374;8.486;2022-09-12T06:23:52;9.83;;;6.03;;
10403;SDS011;5248;47.374;8.486;2022-09-12T06:26:19;8.10;;;6.00;;
10403;SDS011;5248;47.374;8.486;2022-09-12T06:28:49;6.65;;;6.05;;
10403;SDS011;5248;47.374;8.486;2022-09-12T06:31:16;8.15;;;7.22;;
10403;SDS011;5248;47.374;8.486;2022-09-12T06:33:45;6.75;;;6.25;;
10403;SDS011;5248;47.374;8.486;2022-09-12T06:36:13;8.60;;;6.38;;
10403;SDS011;5248;47.374;8.486;2022-09-12T06:38:41;7.22;;;6.45;;
10403;SDS011;5248;47.374;8.486;2022-09-12T06:41:08;6.93;;;6.43;;
10403;SDS011;5248;47.374;8.486;2022-09-12T06:43:36;6.95;;;6.28;;
10403;SDS011;5248;47.374;8.486;2022-09-12T06:46:05;6.53;;;5.97;;
10403;SDS011;5248;47.374;8.486;2022-09-12T06:48:31;7.13;;;6.45;;
10403;SDS011;5248;47.374;8.486;2022-09-12T06:50:59;6.57;;;5.97;;
10403;SDS011;5248;47.374;8.486;2022-09-12T06:53:27;7.35;;;5.82;;
10403;SDS011;5248;47.374;8.486;2022-09-12T06:55:54;6.68;;;6.15;;
10403;SDS011;5248;47.374;8.486;2022-09-12T06:58:22;7.07;;;6.47;;
10403;SDS011;5248;47.374;8.486;2022-09-12T07:00:49;7.55;;;5.95;;
10403;SDS011;5248;47.374;8.486;2022-09-12T07:03:17;8.02;;;6.75;;
10403;SDS011;5248;47.374;8.486;2022-09-12T07:05:44;7.10;;;6.50;;
10403;SDS011;5248;47.374;8.486;2022-09-12T07:08:11;7.05;;;6.45;;
10403;SDS011;5248;47.374;8.486;2022-09-12T07:10:37;6.63;;;6.03;;
10403;SDS011;5248;47.374;8.486;2022-09-12T07:13:04;6.88;;;6.18;;
10403;SDS011;5248;47.374;8.486;2022-09-12T07:15:31;6.15;;;5.47;;
10403;SDS011;5248;47.374;8.486;2022-09-12T07:18:00;6.93;;;6.32;;
10403;SDS011;5248;47.374;8.486;2022-09-12T07:20:28;7.97;;;7.22;;
10403;SDS011;5248;47.374;8.486;2022-09-12T07:22:56;7.43;;;6.75;;
10403;SDS011;5248;47.374;8.486;2022-09-12T07:25:23;7.20;;;6.60;;
10403;SDS011;5248;47.374;8.486;2022-09-12T07:27:51;7.45;;;6.75;;
10403;SDS011;5248;47.374;8.486;2022-09-12T07:30:17;8.70;;;7.85;;
10403;SDS011;5248;47.374;8.486;2022-09-12T07:32:44;7.70;;;6.90;;
10403;SDS011;5248;47.374;8.486;2022-09-12T07:35:11;7.82;;;7.03;;
10403;SDS011;5248;47.374;8.486;2022-09-12T07:37:39;7.70;;;7.00;;
10403;SDS011;5248;47.374;8.486;2022-09-12T07:40:05;7.25;;;6.65;;
10403;SDS011;5248;47.374;8.486;2022-09-12T07:42:32;6.80;;;6.13;;
10403;SDS011;5248;47.374;8.486;2022-09-12T07:44:59;8.27;;;6.85;;
10403;SDS011;5248;47.374;8.486;2022-09-12T07:47:26;6.70;;;6.10;;
10403;SDS011;5248;47.374;8.486;2022-09-12T07:49:53;6.43;;;5.90;;
10403;SDS011;5248;47.374;8.486;2022-09-12T07:52:19;6.55;;;5.93;;
10403;SDS011;5248;47.374;8.486;2022-09-12T07:54:47;6.25;;;5.65;;
10403;SDS011;5248;47.374;8.486;2022-09-12T07:57:14;6.60;;;5.70;;
10403;SDS011;5248;47.374;8.486;2022-09-12T07:59:40;5.85;;;5.25;;
10403;SDS011;5248;47.374;8.486;2022-09-12T08:02:10;5.53;;;5.13;;
10403;SDS011;5248;47.374;8.486;2022-09-12T08:04:38;5.97;;;5.47;;
10403;SDS011;5248;47.374;8.486;2022-09-12T08:07:06;6.00;;;5.50;;
10403;SDS011;5248;47.374;8.486;2022-09-12T08:09:33;6.78;;;6.18;;
10403;SDS011;5248;47.374;8.486;2022-09-12T08:12:01;5.78;;;5.35;;
10403;SDS011;5248;47.374;8.486;2022-09-12T08:14:27;6.68;;;6.03;;
10403;SDS011;5248;47.374;8.486;2022-09-12T08:16:54;6.70;;;6.13;;
10403;SDS011;5248;47.374;8.486;2022-09-12T08:19:21;6.68;;;5.60;;
10403;SDS011;5248;47.374;8.486;2022-09-12T08:21:47;6.22;;;5.57;;
10403;SDS011;5248;47.374;8.486;2022-09-12T08:24:14;6.13;;;5.53;;
10403;SDS011;5248;47.374;8.486;2022-09-12T08:26:41;6.40;;;5.72;;
10403;SDS011;5248;47.374;8.486;2022-09-12T08:29:09;5.32;;;4.93;;
10403;SDS011;5248;47.374;8.486;2022-09-12T08:31:36;6.28;;;5.68;;
10403;SDS011;5248;47.374;8.486;2022-09-12T08:34:05;5.82;;;5.30;;
10403;SDS011;5248;47.374;8.486;2022-09-12T08:36:32;6.55;;;5.95;;
10403;SDS011;5248;47.374;8.486;2022-09-12T08:39:00;5.82;;;5.25;;
10403;SDS011;5248;47.374;8.486;2022-09-12T08:41:28;7.93;;;5.55;;
10403;SDS011;5248;47.374;8.486;2022-09-12T08:44:13;8.00;;;5.45;;
10403;SDS011;5248;47.374;8.486;2022-09-12T08:46:53;5.90;;;5.40;;
10403;SDS011;5248;47.374;8.486;2022-09-12T08:49:28;6.30;;;5.60;;
10403;SDS011;5248;47.374;8.486;2022-09-12T08:51:56;5.20;;;4.80;;
10403;SDS011;5248;47.374;8.486;2022-09-12T08:54:28;7.38;;;5.63;;
10403;SDS011;5248;47.374;8.486;2022-09-12T08:56:57;5.18;;;4.78;;
10403;SDS011;5248;47.374;8.486;2022-09-12T08:59:34;7.35;;;5.63;;
10403;SDS011;5248;47.374;8.486;2022-09-12T09:02:02;5.00;;;4.15;;
10403;SDS011;5248;47.374;8.486;2022-09-12T09:04:36;10.98;;;5.35;;
10403;SDS011;5248;47.374;8.486;2022-09-12T09:10:05;6.53;;;4.80;;
10403;SDS011;5248;47.374;8.486;2022-09-12T09:12:39;9.48;;;5.00;;
10403;SDS011;5248;47.374;8.486;2022-09-12T09:18:07;8.20;;;5.13;;
10403;SDS011;5248;47.374;8.486;2022-09-12T09:20:37;5.05;;;4.55;;
10403;SDS011;5248;47.374;8.486;2022-09-12T09:23:11;4.70;;;4.00;;
10403;SDS011;5248;47.374;8.486;2022-09-12T09:25:41;8.02;;;3.88;;
10403;SDS011;5248;47.374;8.486;2022-09-12T09:28:13;4.18;;;3.60;;
10403;SDS011;5248;47.374;8.486;2022-09-12T09:30:43;6.63;;;4.38;;
10403;SDS011;5248;47.374;8.486;2022-09-12T09:33:14;4.70;;;3.70;;
10403;SDS011;5248;47.374;8.486;2022-09-12T09:35:50;5.72;;;3.58;;
10403;SDS011;5248;47.374;8.486;2022-09-12T09:38:26;4.22;;;3.72;;
10403;SDS011;5248;47.374;8.486;2022-09-12T09:41:06;5.47;;;3.90;;
10403;SDS011;5248;47.374;8.486;2022-09-12T09:43:50;5.18;;;3.70;;
10403;SDS011;5248;47.374;8.486;2022-09-12T09:46:18;4.80;;;3.65;;
10403;SDS011;5248;47.374;8.486;2022-09-12T09:48:45;3.78;;;3.47;;
10403;SDS011;5248;47.374;8.486;2022-09-12T09:51:14;4.40;;;3.78;;
10403;SDS011;5248;47.374;8.486;2022-09-12T09:53:46;4.63;;;3.33;;
10403;SDS011;5248;47.374;8.486;2022-09-12T09:56:14;10.48;;;4.07;;
10403;SDS011;5248;47.374;8.486;2022-09-12T09:58:50;3.55;;;3.10;;
10403;SDS011;5248;47.374;8.486;2022-09-12T10:01:18;4.30;;;3.80;;
10403;SDS011;5248;47.374;8.486;2022-09-12T10:03:48;6.28;;;3.53;;
10403;SDS011;5248;47.374;8.486;2022-09-12T10:06:24;3.40;;;3.10;;
10403;SDS011;5248;47.374;8.486;2022-09-12T10:09:02;5.53;;;3.75;;
10403;SDS011;5248;47.374;8.486;2022-09-12T10:11:30;3.50;;;3.10;;
10403;SDS011;5248;47.374;8.486;2022-09-12T10:13:58;3.50;;;3.20;;
10403;SDS011;5248;47.374;8.486;2022-09-12T10:16:28;3.50;;;3.20;;
10403;SDS011;5248;47.374;8.486;2022-09-12T10:18:56;3.17;;;2.88;;
10403;SDS011;5248;47.374;8.486;2022-09-12T10:21:26;5.60;;;3.30;;
10403;SDS011;5248;47.374;8.486;2022-09-12T10:23:59;5.80;;;3.42;;
10403;SDS011;5248;47.374;8.486;2022-09-12T10:26:31;4.57;;;3.30;;
10403;SDS011;5248;47.374;8.486;2022-09-12T10:29:02;5.88;;;3.50;;
10403;SDS011;5248;47.374;8.486;2022-09-12T10:31:35;3.60;;;3.30;;
10403;SDS011;5248;47.374;8.486;2022-09-12T10:34:16;4.25;;;3.30;;
10403;SDS011;5248;47.374;8.486;2022-09-12T10:36:47;3.63;;;3.13;;
10403;SDS011;5248;47.374;8.486;2022-09-12T10:39:16;8.63;;;3.67;;
10403;SDS011;5248;47.374;8.486;2022-09-12T10:41:46;3.55;;;3.25;;
10403;SDS011;5248;47.374;8.486;2022-09-12T10:44:14;3.58;;;2.80;;
10403;SDS011;5248;47.374;8.486;2022-09-12T10:46:44;3.30;;;2.90;;
10403;SDS011;5248;47.374;8.486;2022-09-12T10:49:21;4.00;;;3.10;;
10403;SDS011;5248;47.374;8.486;2022-09-12T10:51:49;5.45;;;2.60;;
10403;SDS011;5248;47.374;8.486;2022-09-12T10:54:18;3.08;;;2.78;;
10403;SDS011;5248;47.374;8.486;2022-09-12T10:56:55;3.15;;;2.78;;
10403;SDS011;5248;47.374;8.486;2022-09-12T10:59:32;2.92;;;2.72;;
10403;SDS011;5248;47.374;8.486;2022-09-12T11:02:11;3.58;;;3.13;;
10403;SDS011;5248;47.374;8.486;2022-09-12T11:04:43;4.03;;;2.78;;
10403;SDS011;5248;47.374;8.486;2022-09-12T11:07:19;4.57;;;2.90;;
10403;SDS011;5248;47.374;8.486;2022-09-12T11:09:54;3.08;;;2.50;;
10403;SDS011;5248;47.374;8.486;2022-09-12T11:12:27;2.58;;;2.38;;
10403;SDS011;5248;47.374;8.486;2022-09-12T11:15:01;2.78;;;2.38;;
10403;SDS011;5248;47.374;8.486;2022-09-12T11:17:38;2.22;;;2.08;;
10403;SDS011;5248;47.374;8.486;2022-09-12T11:20:12;3.58;;;2.55;;
10403;SDS011;5248;47.374;8.486;2022-09-12T11:23:00;2.63;;;2.28;;
10403;SDS011;5248;47.374;8.486;2022-09-12T11:25:33;2.90;;;1.90;;
10403;SDS011;5248;47.374;8.486;2022-09-12T11:28:20;2.28;;;2.08;;
10403;SDS011;5248;47.374;8.486;2022-09-12T11:30:58;2.50;;;2.30;;
10403;SDS011;5248;47.374;8.486;2022-09-12T11:33:37;2.50;;;2.30;;
10403;SDS011;5248;47.374;8.486;2022-09-12T11:36:09;3.40;;;2.00;;
10403;SDS011;5248;47.374;8.486;2022-09-12T11:38:45;2.60;;;2.00;;
10403;SDS011;5248;47.374;8.486;2022-09-12T11:41:20;3.58;;;2.38;;
10403;SDS011;5248;47.374;8.486;2022-09-12T11:43:52;2.15;;;1.90;;
10403;SDS011;5248;47.374;8.486;2022-09-12T11:46:22;2.70;;;1.90;;
10403;SDS011;5248;47.374;8.486;2022-09-12T11:48:56;1.92;;;1.70;;
10403;SDS011;5248;47.374;8.486;2022-09-12T11:51:26;2.78;;;1.80;;
10403;SDS011;5248;47.374;8.486;2022-09-12T11:53:59;2.70;;;1.85;;
10403;SDS011;5248;47.374;8.486;2022-09-12T11:56:29;2.47;;;1.88;;
10403;SDS011;5248;47.374;8.486;2022-09-12T11:58:57;2.25;;;1.70;;
10403;SDS011;5248;47.374;8.486;2022-09-12T12:01:26;2.38;;;1.75;;
10403;SDS011;5248;47.374;8.486;2022-09-12T12:03:56;1.65;;;1.55;;
10403;SDS011;5248;47.374;8.486;2022-09-12T12:06:25;2.47;;;1.80;;
10403;SDS011;5248;47.374;8.486;2022-09-12T12:08:55;1.95;;;1.65;;
10403;SDS011;5248;47.374;8.486;2022-09-12T12:11:26;2.63;;;1.90;;
10403;SDS011;5248;47.374;8.486;2022-09-12T12:14:05;2.47;;;2.00;;
10403;SDS011;5248;47.374;8.486;2022-09-12T12:16:38;1.85;;;1.55;;
10403;SDS011;5248;47.374;8.486;2022-09-12T12:19:20;4.40;;;1.90;;
10403;SDS011;5248;47.374;8.486;2022-09-12T12:21:55;2.88;;;1.77;;
10403;SDS011;5248;47.374;8.486;2022-09-12T12:24:33;1.73;;;1.63;;
10403;SDS011;5248;47.374;8.486;2022-09-12T12:27:02;1.60;;;1.50;;
10403;SDS011;5248;47.374;8.486;2022-09-12T12:29:43;2.67;;;1.95;;
10403;SDS011;5248;47.374;8.486;2022-09-12T12:32:25;2.17;;;1.98;;
10403;SDS011;5248;47.374;8.486;2022-09-12T12:38:00;2.13;;;1.75;;
10403;SDS011;5248;47.374;8.486;2022-09-12T12:40:28;2.08;;;1.50;;
10403;SDS011;5248;47.374;8.486;2022-09-12T12:42:57;2.70;;;2.10;;
10403;SDS011;5248;47.374;8.486;2022-09-12T12:48:28;2.08;;;1.50;;
10403;SDS011;5248;47.374;8.486;2022-09-12T12:53:55;2.92;;;1.85;;
10403;SDS011;5248;47.374;8.486;2022-09-12T12:56:25;2.53;;;1.70;;
10403;SDS011;5248;47.374;8.486;2022-09-12T12:59:00;1.70;;;1.52;;
10403;SDS011;5248;47.374;8.486;2022-09-12T13:01:30;3.78;;;1.77;;
10403;SDS011;5248;47.374;8.486;2022-09-12T13:04:04;2.13;;;1.55;;
10403;SDS011;5248;47.374;8.486;2022-09-12T13:06:38;1.95;;;1.60;;
10403;SDS011;5248;47.374;8.486;2022-09-12T13:09:08;1.80;;;1.30;;
10403;SDS011;5248;47.374;8.486;2022-09-12T13:11:45;1.63;;;1.48;;
10403;SDS011;5248;47.374;8.486;2022-09-12T13:17:13;1.38;;;1.25;;
10403;SDS011;5248;47.374;8.486;2022-09-12T13:19:45;3.00;;;1.52;;
10403;SDS011;5248;47.374;8.486;2022-09-12T13:22:12;1.77;;;1.38;;
10403;SDS011;5248;47.374;8.486;2022-09-12T13:24:42;1.42;;;1.08;;
10403;SDS011;5248;47.374;8.486;2022-09-12T13:27:15;2.28;;;1.27;;
10403;SDS011;5248;47.374;8.486;2022-09-12T13:29:42;3.10;;;1.23;;
10403;SDS011;5248;47.374;8.486;2022-09-12T13:32:09;2.25;;;1.35;;
10403;SDS011;5248;47.374;8.486;2022-09-12T13:34:36;0.90;;;0.90;;
10403;SDS011;5248;47.374;8.486;2022-09-12T13:37:24;1.20;;;1.10;;
10403;SDS011;5248;47.374;8.486;2022-09-12T13:39:59;1.30;;;0.98;;
10403;SDS011;5248;47.374;8.486;2022-09-12T13:42:37;2.80;;;1.10;;
10403;SDS011;5248;47.374;8.486;2022-09-12T13:45:11;1.65;;;1.38;;
10403;SDS011;5248;47.374;8.486;2022-09-12T13:47:40;1.08;;;0.98;;
10403;SDS011;5248;47.374;8.486;2022-09-12T13:50:14;1.50;;;0.82;;
10403;SDS011;5248;47.374;8.486;2022-09-12T13:52:47;2.05;;;1.42;;
10403;SDS011;5248;47.374;8.486;2022-09-12T13:55:24;2.45;;;1.48;;
10403;SDS011;5248;47.374;8.486;2022-09-12T13:57:56;3.17;;;1.30;;
10403;SDS011;5248;47.374;8.486;2022-09-12T14:00:25;1.85;;;1.20;;
10403;SDS011;5248;47.374;8.486;2022-09-12T14:02:52;1.50;;;1.40;;
10403;SDS011;5248;47.374;8.486;2022-09-12T14:05:40;1.20;;;1.10;;
10403;SDS011;5248;47.374;8.486;2022-09-12T14:08:09;1.83;;;1.40;;
10403;SDS011;5248;47.374;8.486;2022-09-12T14:10:43;1.25;;;1.15;;
10403;SDS011;5248;47.374;8.486;2022-09-12T14:13:12;3.35;;;2.28;;
10403;SDS011;5248;47.374;8.486;2022-09-12T14:15:43;3.20;;;1.80;;
10403;SDS011;5248;47.374;8.486;2022-09-12T14:18:19;1.65;;;0.93;;
10403;SDS011;5248;47.374;8.486;2022-09-12T14:20:48;1.13;;;1.05;;
10403;SDS011;5248;47.374;8.486;2022-09-12T14:23:23;9.18;;;5.88;;
10403;SDS011;5248;47.374;8.486;2022-09-12T14:25:54;6.80;;;5.22;;
10403;SDS011;5248;47.374;8.486;2022-09-12T14:28:21;5.20;;;4.18;;
10403;SDS011;5248;47.374;8.486;2022-09-12T14:30:58;2.65;;;2.22;;
10403;SDS011;5248;47.374;8.486;2022-09-12T14:33:26;1.90;;;1.80;;
10403;SDS011;5248;47.374;8.486;2022-09-12T14:36:06;1.27;;;1.23;;
10403;SDS011;5248;47.374;8.486;2022-09-12T14:38:35;1.58;;;0.93;;
10403;SDS011;5248;47.374;8.486;2022-09-12T14:41:07;0.70;;;0.70;;
10403;SDS011;5248;47.374;8.486;2022-09-12T14:43:37;0.70;;;0.70;;
10403;SDS011;5248;47.374;8.486;2022-09-12T14:46:05;0.70;;;0.70;;
10403;SDS011;5248;47.374;8.486;2022-09-12T14:48:33;0.75;;;0.60;;
10403;SDS011;5248;47.374;8.486;2022-09-12T14:51:01;1.02;;;0.85;;
10403;SDS011;5248;47.374;8.486;2022-09-12T14:53:32;1.48;;;1.40;;
10403;SDS011;5248;47.374;8.486;2022-09-12T14:56:05;1.48;;;1.48;;
10403;SDS011;5248;47.374;8.486;2022-09-12T14:58:35;0.80;;;0.80;;
10403;SDS011;5248;47.374;8.486;2022-09-12T15:03:50;1.25;;;1.25;;
10403;SDS011;5248;47.374;8.486;2022-09-12T15:06:19;0.90;;;0.90;;
10403;SDS011;5248;47.374;8.486;2022-09-12T15:08:48;1.00;;;1.00;;
10403;SDS011;5248;47.374;8.486;2022-09-12T15:11:18;2.20;;;2.10;;
10403;SDS011;5248;47.374;8.486;2022-09-12T15:13:45;0.95;;;0.93;;
10403;SDS011;5248;47.374;8.486;2022-09-12T15:16:12;0.85;;;0.85;;
10403;SDS011;5248;47.374;8.486;2022-09-12T15:18:39;1.65;;;1.55;;
10403;SDS011;5248;47.374;8.486;2022-09-12T15:21:06;1.73;;;1.63;;
10403;SDS011;5248;47.374;8.486;2022-09-12T15:23:36;1.20;;;1.20;;
10403;SDS011;5248;47.374;8.486;2022-09-12T15:26:06;1.40;;;1.30;;
10403;SDS011;5248;47.374;8.486;2022-09-12T15:28:36;3.47;;;1.50;;
10403;SDS011;5248;47.374;8.486;2022-09-12T15:31:04;1.02;;;0.93;;
10403;SDS011;5248;47.374;8.486;2022-09-12T15:33:33;2.72;;;1.00;;
10403;SDS011;5248;47.374;8.486;2022-09-12T15:36:01;1.15;;;0.98;;
10403;SDS011;5248;47.374;8.486;2022-09-12T15:38:27;4.03;;;3.72;;
10403;SDS011;5248;47.374;8.486;2022-09-12T15:40:54;1.77;;;1.67;;
10403;SDS011;5248;47.374;8.486;2022-09-12T15:43:21;1.67;;;1.55;;